sensor_id;sensor_type;location;lat;lon;timestamp;temperature;humidity
16271;DHT22;8243;49.048;8.396;2023-07-09T00:02:14;20.60;99.20
16271;DHT22;8243;49.048;8.396;2023-07-09T00:04:41;20.50;99.90
16271;DHT22;8243;49.048;8.396;2023-07-09T00:07:21;20.40;99.90
16271;DHT22;8243;49.048;8.396;2023-07-09T00:09:48;20.50;99.90
16271;DHT22;8243;49.048;8.396;2023-07-09T00:12:16;20.40;99.90
16271;DHT22;8243;49.048;8.396;2023-07-09T00:14:42;20.40;99.90
16271;DHT22;8243;49.048;8.396;2023-07-09T00:17:17;20.40;99.90
16271;DHT22;8243;49.048;8.396;2023-07-09T00:19:43;20.40;99.90
16271;DHT22;8243;49.048;8.396;2023-07-09T00:22:15;20.40;99.90
16271;DHT22;8243;49.048;8.396;2023-07-09T00:24:47;20.40;99.90
16271;DHT22;8243;49.048;8.396;2023-07-09T00:27:14;20.40;99.90
16271;DHT22;8243;49.048;8.396;2023-07-09T00:29:43;20.30;99.90
16271;DHT22;8243;49.048;8.396;2023-07-09T00:32:17;20.30;99.90
16271;DHT22;8243;49.048;8.396;2023-07-09T00:34:47;20.30;99.90
16271;DHT22;8243;49.048;8.396;2023-07-09T00:37:19;20.20;99.90
16271;DHT22;8243;49.048;8.396;2023-07-09T00:39:46;20.30;99.90
16271;DHT22;8243;49.048;8.396;2023-07-09T00:42:20;20.20;99.90
16271;DHT22;8243;49.048;8.396;2023-07-09T00:44:50;20.20;99.90
16271;DHT22;8243;49.048;8.396;2023-07-09T00:47:23;20.20;99.90
16271;DHT22;8243;49.048;8.396;2023-07-09T00:49:49;20.10;99.90
16271;DHT22;8243;49.048;8.396;2023-07-09T00:52:28;20.10;99.90
16271;DHT22;8243;49.048;8.396;2023-07-09T00:55:00;20.20;99.90
16271;DHT22;8243;49.048;8.396;2023-07-09T00:57:29;20.20;99.90
16271;DHT22;8243;49.048;8.396;2023-07-09T01:00:01;20.20;99.90
16271;DHT22;8243;49.048;8.396;2023-07-09T01:02:34;20.30;99.90
16271;DHT22;8243;49.048;8.396;2023-07-09T01:05:01;20.20;99.90
16271;DHT22;8243;49.048;8.396;2023-07-09T01:07:28;20.30;99.90
16271;DHT22;8243;49.048;8.396;2023-07-09T01:09:54;20.20;99.90
16271;DHT22;8243;49.048;8.396;2023-07-09T01:12:22;20.20;99.90
16271;DHT22;8243;49.048;8.396;2023-07-09T01:14:49;20.00;99.90
16271;DHT22;8243;49.048;8.396;2023-07-09T01:17:18;19.90;99.90
16271;DHT22;8243;49.048;8.396;2023-07-09T01:19:49;19.90;99.90
16271;DHT22;8243;49.048;8.396;2023-07-09T01:22:18;19.80;99.90
16271;DHT22;8243;49.048;8.396;2023-07-09T01:25:05;19.80;99.90
16271;DHT22;8243;49.048;8.396;2023-07-09T01:27:36;19.90;99.90
16271;DHT22;8243;49.048;8.396;2023-07-09T01:30:12;19.80;99.90
16271;DHT22;8243;49.048;8.396;2023-07-09T01:32:40;19.60;99.90
16271;DHT22;8243;49.048;8.396;2023-07-09T01:35:12;19.50;99.90
16271;DHT22;8243;49.048;8.396;2023-07-09T01:37:38;19.50;99.90
16271;DHT22;8243;49.048;8.396;2023-07-09T01:40:06;19.40;99.90
16271;DHT22;8243;49.048;8.396;2023-07-09T01:42:32;19.40;99.90
16271;DHT22;8243;49.048;8.396;2023-07-09T01:44:58;19.40;99.90
16271;DHT22;8243;49.048;8.396;2023-07-09T01:47:24;19.50;99.90
16271;DHT22;8243;49.048;8.396;2023-07-09T01:49:52;19.50;99.90
16271;DHT22;8243;49.048;8.396;2023-07-09T01:52:24;19.40;99.90
16271;DHT22;8243;49.048;8.396;2023-07-09T01:54:50;19.40;99.90
16271;DHT22;8243;49.048;8.396;2023-07-09T01:57:25;19.40;99.90
16271;DHT22;8243;49.048;8.396;2023-07-09T01:59:59;19.40;99.90
16271;DHT22;8243;49.048;8.396;2023-07-09T02:02:26;19.30;99.90
16271;DHT22;8243;49.048;8.396;2023-07-09T02:04:58;19.30;99.90
16271;DHT22;8243;49.048;8.396;2023-07-09T02:07:26;19.30;99.90
16271;DHT22;8243;49.048;8.396;2023-07-09T02:09:52;19.30;99.90
16271;DHT22;8243;49.048;8.396;2023-07-09T02:12:18;19.30;99.90
16271;DHT22;8243;49.048;8.396;2023-07-09T02:14:45;19.40;99.90
16271;DHT22;8243;49.048;8.396;2023-07-09T02:17:12;19.40;99.90
16271;DHT22;8243;49.048;8.396;2023-07-09T02:19:37;19.50;99.90
16271;DHT22;8243;49.048;8.396;2023-07-09T02:22:04;19.50;99.90
16271;DHT22;8243;49.048;8.396;2023-07-09T02:24:30;19.50;99.90
16271;DHT22;8243;49.048;8.396;2023-07-09T02:27:01;19.60;99.90
16271;DHT22;8243;49.048;8.396;2023-07-09T02:29:28;19.50;99.90
16271;DHT22;8243;49.048;8.396;2023-07-09T02:31:55;19.50;99.90
16271;DHT22;8243;49.048;8.396;2023-07-09T02:34:22;19.40;99.90
16271;DHT22;8243;49.048;8.396;2023-07-09T02:36:52;19.30;99.90
16271;DHT22;8243;49.048;8.396;2023-07-09T02:39:18;19.30;99.90
16271;DHT22;8243;49.048;8.396;2023-07-09T02:41:45;19.30;99.90
16271;DHT22;8243;49.048;8.396;2023-07-09T02:44:10;19.20;99.90
16271;DHT22;8243;49.048;8.396;2023-07-09T02:46:36;19.00;99.90
16271;DHT22;8243;49.048;8.396;2023-07-09T02:49:07;19.10;99.90
16271;DHT22;8243;49.048;8.396;2023-07-09T02:51:33;19.10;99.90
16271;DHT22;8243;49.048;8.396;2023-07-09T02:54:01;19.10;99.90
16271;DHT22;8243;49.048;8.396;2023-07-09T02:56:27;19.00;99.90
16271;DHT22;8243;49.048;8.396;2023-07-09T02:58:53;18.90;99.90
16271;DHT22;8243;49.048;8.396;2023-07-09T03:04:42;18.70;99.90
16271;DHT22;8243;49.048;8.396;2023-07-09T03:07:07;18.60;99.90
16271;DHT22;8243;49.048;8.396;2023-07-09T03:09:33;18.60;99.90
16271;DHT22;8243;49.048;8.396;2023-07-09T03:11:59;18.60;99.90
16271;DHT22;8243;49.048;8.396;2023-07-09T03:14:25;18.60;99.90
16271;DHT22;8243;49.048;8.396;2023-07-09T03:16:50;18.50;99.90
16271;DHT22;8243;49.048;8.396;2023-07-09T03:19:17;18.50;99.90
16271;DHT22;8243;49.048;8.396;2023-07-09T03:21:42;18.50;99.90
16271;DHT22;8243;49.048;8.396;2023-07-09T03:24:08;18.50;99.90
16271;DHT22;8243;49.048;8.396;2023-07-09T03:26:34;18.50;99.90
16271;DHT22;8243;49.048;8.396;2023-07-09T03:29:00;18.50;99.90
16271;DHT22;8243;49.048;8.396;2023-07-09T03:31:26;18.50;99.90
16271;DHT22;8243;49.048;8.396;2023-07-09T03:33:52;18.50;99.90
16271;DHT22;8243;49.048;8.396;2023-07-09T03:36:18;18.50;99.90
16271;DHT22;8243;49.048;8.396;2023-07-09T03:38:48;18.40;99.90
16271;DHT22;8243;49.048;8.396;2023-07-09T03:41:15;18.30;99.90
16271;DHT22;8243;49.048;8.396;2023-07-09T03:43:40;18.20;99.90
16271;DHT22;8243;49.048;8.396;2023-07-09T03:46:08;18.10;99.90
16271;DHT22;8243;49.048;8.396;2023-07-09T03:48:34;18.10;99.90
16271;DHT22;8243;49.048;8.396;2023-07-09T03:51:00;18.10;99.90
16271;DHT22;8243;49.048;8.396;2023-07-09T03:53:25;18.10;99.90
16271;DHT22;8243;49.048;8.396;2023-07-09T03:55:53;18.10;99.90
16271;DHT22;8243;49.048;8.396;2023-07-09T03:58:19;18.20;99.90
16271;DHT22;8243;49.048;8.396;2023-07-09T04:00:45;18.30;99.90
16271;DHT22;8243;49.048;8.396;2023-07-09T04:03:10;18.40;99.90
16271;DHT22;8243;49.048;8.396;2023-07-09T04:05:36;18.60;99.90
16271;DHT22;8243;49.048;8.396;2023-07-09T04:08:03;18.90;99.90
16271;DHT22;8243;49.048;8.396;2023-07-09T04:10:29;19.30;99.90
16271;DHT22;8243;49.048;8.396;2023-07-09T04:12:55;19.80;99.90
16271;DHT22;8243;49.048;8.396;2023-07-09T04:15:20;20.40;99.90
16271;DHT22;8243;49.048;8.396;2023-07-09T04:17:46;20.80;99.90
16271;DHT22;8243;49.048;8.396;2023-07-09T04:20:12;21.30;99.90
16271;DHT22;8243;49.048;8.396;2023-07-09T04:22:40;21.60;99.90
16271;DHT22;8243;49.048;8.396;2023-07-09T04:25:09;21.80;99.30
16271;DHT22;8243;49.048;8.396;2023-07-09T04:27:38;21.60;98.50
16271;DHT22;8243;49.048;8.396;2023-07-09T04:30:08;21.50;96.40
16271;DHT22;8243;49.048;8.396;2023-07-09T04:32:34;21.90;94.90
16271;DHT22;8243;49.048;8.396;2023-07-09T04:35:02;22.50;90.30
16271;DHT22;8243;49.048;8.396;2023-07-09T04:37:31;23.00;83.70
16271;DHT22;8243;49.048;8.396;2023-07-09T04:39:57;23.30;78.00
16271;DHT22;8243;49.048;8.396;2023-07-09T04:42:23;23.60;72.50
16271;DHT22;8243;49.048;8.396;2023-07-09T04:44:49;24.00;65.60
16271;DHT22;8243;49.048;8.396;2023-07-09T04:47:15;24.50;59.80
16271;DHT22;8243;49.048;8.396;2023-07-09T04:49:41;24.80;54.30
16271;DHT22;8243;49.048;8.396;2023-07-09T04:52:08;25.50;47.90
16271;DHT22;8243;49.048;8.396;2023-07-09T04:54:37;25.80;42.90
16271;DHT22;8243;49.048;8.396;2023-07-09T04:57:05;26.30;38.20
16271;DHT22;8243;49.048;8.396;2023-07-09T04:59:31;26.30;35.60
16271;DHT22;8243;49.048;8.396;2023-07-09T05:01:59;26.40;33.60
16271;DHT22;8243;49.048;8.396;2023-07-09T05:04:24;26.90;30.30
16271;DHT22;8243;49.048;8.396;2023-07-09T05:06:50;27.40;27.30
16271;DHT22;8243;49.048;8.396;2023-07-09T05:09:16;27.50;26.30
16271;DHT22;8243;49.048;8.396;2023-07-09T05:11:42;27.60;25.10
16271;DHT22;8243;49.048;8.396;2023-07-09T05:14:08;27.70;24.10
16271;DHT22;8243;49.048;8.396;2023-07-09T05:16:34;28.00;22.60
16271;DHT22;8243;49.048;8.396;2023-07-09T05:19:00;27.90;22.00
16271;DHT22;8243;49.048;8.396;2023-07-09T05:21:26;28.30;21.10
16271;DHT22;8243;49.048;8.396;2023-07-09T05:23:52;28.20;20.60
16271;DHT22;8243;49.048;8.396;2023-07-09T05:26:18;28.90;19.10
16271;DHT22;8243;49.048;8.396;2023-07-09T05:28:44;29.20;17.90
16271;DHT22;8243;49.048;8.396;2023-07-09T05:31:10;29.50;16.40
16271;DHT22;8243;49.048;8.396;2023-07-09T05:33:36;30.10;14.60
16271;DHT22;8243;49.048;8.396;2023-07-09T05:36:02;30.60;13.60
16271;DHT22;8243;49.048;8.396;2023-07-09T05:38:27;30.70;13.20
16271;DHT22;8243;49.048;8.396;2023-07-09T05:41:03;30.90;12.50
16271;DHT22;8243;49.048;8.396;2023-07-09T05:43:31;31.10;12.00
16271;DHT22;8243;49.048;8.396;2023-07-09T05:45:57;31.10;11.80
16271;DHT22;8243;49.048;8.396;2023-07-09T05:48:23;31.30;11.50
16271;DHT22;8243;49.048;8.396;2023-07-09T05:50:52;31.40;11.10
16271;DHT22;8243;49.048;8.396;2023-07-09T05:53:21;31.80;10.40
16271;DHT22;8243;49.048;8.396;2023-07-09T05:55:47;31.80;10.30
16271;DHT22;8243;49.048;8.396;2023-07-09T05:58:12;32.20;9.80
16271;DHT22;8243;49.048;8.396;2023-07-09T06:00:38;32.50;9.20
16271;DHT22;8243;49.048;8.396;2023-07-09T06:03:06;32.60;9.30
16271;DHT22;8243;49.048;8.396;2023-07-09T06:05:34;32.60;8.90
16271;DHT22;8243;49.048;8.396;2023-07-09T06:07:59;32.40;9.80
16271;DHT22;8243;49.048;8.396;2023-07-09T06:10:26;33.10;8.50
16271;DHT22;8243;49.048;8.396;2023-07-09T06:12:52;33.30;8.00
16271;DHT22;8243;49.048;8.396;2023-07-09T06:15:19;33.70;6.80
16271;DHT22;8243;49.048;8.396;2023-07-09T06:17:45;33.70;6.80
16271;DHT22;8243;49.048;8.396;2023-07-09T06:20:12;33.50;7.80
16271;DHT22;8243;49.048;8.396;2023-07-09T06:22:37;33.90;6.20
16271;DHT22;8243;49.048;8.396;2023-07-09T06:25:03;34.00;6.30
16271;DHT22;8243;49.048;8.396;2023-07-09T06:27:29;34.20;4.70
16271;DHT22;8243;49.048;8.396;2023-07-09T06:29:55;34.50;4.40
16271;DHT22;8243;49.048;8.396;2023-07-09T06:32:21;33.70;4.90
16271;DHT22;8243;49.048;8.396;2023-07-09T06:34:47;34.10;5.00
16271;DHT22;8243;49.048;8.396;2023-07-09T06:37:13;34.30;4.90
16271;DHT22;8243;49.048;8.396;2023-07-09T06:39:38;34.10;4.40
16271;DHT22;8243;49.048;8.396;2023-07-09T06:42:05;34.00;4.90
16271;DHT22;8243;49.048;8.396;2023-07-09T06:44:31;34.60;4.60
16271;DHT22;8243;49.048;8.396;2023-07-09T06:46:58;34.80;3.90
16271;DHT22;8243;49.048;8.396;2023-07-09T06:49:25;35.00;3.40
16271;DHT22;8243;49.048;8.396;2023-07-09T06:51:51;35.50;2.50
16271;DHT22;8243;49.048;8.396;2023-07-09T06:54:17;35.90;1.00
16271;DHT22;8243;49.048;8.396;2023-07-09T06:56:43;36.40;1.00
16271;DHT22;8243;49.048;8.396;2023-07-09T06:59:08;37.10;1.00
16271;DHT22;8243;49.048;8.396;2023-07-09T07:01:36;37.30;1.00
16271;DHT22;8243;49.048;8.396;2023-07-09T07:04:01;37.30;1.00
16271;DHT22;8243;49.048;8.396;2023-07-09T07:06:27;36.30;1.00
16271;DHT22;8243;49.048;8.396;2023-07-09T07:08:52;35.60;1.80
16271;DHT22;8243;49.048;8.396;2023-07-09T07:11:18;36.00;1.00
16271;DHT22;8243;49.048;8.396;2023-07-09T07:13:45;35.30;1.20
16271;DHT22;8243;49.048;8.396;2023-07-09T07:16:12;35.40;1.00
16271;DHT22;8243;49.048;8.396;2023-07-09T07:18:38;34.50;2.00
16271;DHT22;8243;49.048;8.396;2023-07-09T07:21:05;34.10;3.40
16271;DHT22;8243;49.048;8.396;2023-07-09T07:23:31;34.80;2.20
16271;DHT22;8243;49.048;8.396;2023-07-09T07:25:58;35.20;2.20
16271;DHT22;8243;49.048;8.396;2023-07-09T07:28:24;35.50;1.00
16271;DHT22;8243;49.048;8.396;2023-07-09T07:31:00;35.30;1.00
16271;DHT22;8243;49.048;8.396;2023-07-09T07:33:26;36.40;1.00
16271;DHT22;8243;49.048;8.396;2023-07-09T07:35:51;35.70;1.00
16271;DHT22;8243;49.048;8.396;2023-07-09T07:38:17;35.80;1.00
16271;DHT22;8243;49.048;8.396;2023-07-09T07:40:45;35.90;1.00
16271;DHT22;8243;49.048;8.396;2023-07-09T07:43:11;36.10;1.00
16271;DHT22;8243;49.048;8.396;2023-07-09T07:45:41;36.00;1.00
16271;DHT22;8243;49.048;8.396;2023-07-09T07:48:08;36.20;1.00
16271;DHT22;8243;49.048;8.396;2023-07-09T07:50:33;36.70;1.00
16271;DHT22;8243;49.048;8.396;2023-07-09T07:52:59;36.90;1.00
16271;DHT22;8243;49.048;8.396;2023-07-09T07:55:24;37.30;1.00
16271;DHT22;8243;49.048;8.396;2023-07-09T07:57:50;36.90;1.00
16271;DHT22;8243;49.048;8.396;2023-07-09T08:00:18;37.00;1.00
16271;DHT22;8243;49.048;8.396;2023-07-09T08:02:44;36.60;1.00
16271;DHT22;8243;49.048;8.396;2023-07-09T08:05:10;36.00;1.00
16271;DHT22;8243;49.048;8.396;2023-07-09T08:07:36;35.10;1.00
16271;DHT22;8243;49.048;8.396;2023-07-09T08:10:03;35.70;1.00
16271;DHT22;8243;49.048;8.396;2023-07-09T08:12:29;35.40;1.00
16271;DHT22;8243;49.048;8.396;2023-07-09T08:14:54;35.70;1.00
16271;DHT22;8243;49.048;8.396;2023-07-09T08:17:20;37.10;1.00
16271;DHT22;8243;49.048;8.396;2023-07-09T08:19:48;37.10;1.00
16271;DHT22;8243;49.048;8.396;2023-07-09T08:22:14;37.50;1.00
16271;DHT22;8243;49.048;8.396;2023-07-09T08:24:40;38.20;1.00
16271;DHT22;8243;49.048;8.396;2023-07-09T08:27:07;38.10;1.00
16271;DHT22;8243;49.048;8.396;2023-07-09T08:29:33;38.20;1.00
16271;DHT22;8243;49.048;8.396;2023-07-09T08:31:59;37.70;1.00
16271;DHT22;8243;49.048;8.396;2023-07-09T08:34:25;38.10;1.00
16271;DHT22;8243;49.048;8.396;2023-07-09T08:36:51;37.40;1.00
16271;DHT22;8243;49.048;8.396;2023-07-09T08:39:16;37.30;1.00
16271;DHT22;8243;49.048;8.396;2023-07-09T08:41:57;37.00;1.00
16271;DHT22;8243;49.048;8.396;2023-07-09T08:52:38;36.70;1.00
16271;DHT22;8243;49.048;8.396;2023-07-09T08:55:18;37.00;1.00
16271;DHT22;8243;49.048;8.396;2023-07-09T08:57:47;37.00;1.00
16271;DHT22;8243;49.048;8.396;2023-07-09T09:00:29;37.40;1.00
16271;DHT22;8243;49.048;8.396;2023-07-09T09:03:14;38.10;1.00
16271;DHT22;8243;49.048;8.396;2023-07-09T09:05:43;38.30;1.00
16271;DHT22;8243;49.048;8.396;2023-07-09T09:10:44;36.90;1.00
16271;DHT22;8243;49.048;8.396;2023-07-09T09:13:14;37.20;1.00
16271;DHT22;8243;49.048;8.396;2023-07-09T09:15:43;37.90;1.00
16271;DHT22;8243;49.048;8.396;2023-07-09T09:18:23;37.90;1.00
16271;DHT22;8243;49.048;8.396;2023-07-09T09:21:29;37.70;1.00
16271;DHT22;8243;49.048;8.396;2023-07-09T09:23:58;37.50;1.00
16271;DHT22;8243;49.048;8.396;2023-07-09T09:26:32;36.90;1.00
16271;DHT22;8243;49.048;8.396;2023-07-09T09:29:00;36.70;1.00
16271;DHT22;8243;49.048;8.396;2023-07-09T09:31:27;37.40;1.00
16271;DHT22;8243;49.048;8.396;2023-07-09T09:33:54;38.10;1.00
16271;DHT22;8243;49.048;8.396;2023-07-09T09:36:22;38.40;1.00
16271;DHT22;8243;49.048;8.396;2023-07-09T09:38:49;38.10;1.00
16271;DHT22;8243;49.048;8.396;2023-07-09T09:41:20;37.80;1.00
16271;DHT22;8243;49.048;8.396;2023-07-09T09:43:48;37.80;1.00
16271;DHT22;8243;49.048;8.396;2023-07-09T09:46:20;38.20;1.00
16271;DHT22;8243;49.048;8.396;2023-07-09T09:48:50;38.50;1.00
16271;DHT22;8243;49.048;8.396;2023-07-09T09:51:19;39.40;1.00
16271;DHT22;8243;49.048;8.396;2023-07-09T09:53:49;39.10;1.00
16271;DHT22;8243;49.048;8.396;2023-07-09T09:56:28;38.80;1.00
16271;DHT22;8243;49.048;8.396;2023-07-09T09:58:57;38.00;1.00
16271;DHT22;8243;49.048;8.396;2023-07-09T10:01:29;37.00;1.00
16271;DHT22;8243;49.048;8.396;2023-07-09T10:03:59;36.40;1.00
16271;DHT22;8243;49.048;8.396;2023-07-09T10:14:18;37.30;1.00
16271;DHT22;8243;49.048;8.396;2023-07-09T10:16:52;36.90;1.00
16271;DHT22;8243;49.048;8.396;2023-07-09T10:31:05;37.50;1.00
16271;DHT22;8243;49.048;8.396;2023-07-09T10:36:21;38.30;1.00
16271;DHT22;8243;49.048;8.396;2023-07-09T10:38:55;36.70;1.00
16271;DHT22;8243;49.048;8.396;2023-07-09T10:41:26;36.40;1.00
16271;DHT22;8243;49.048;8.396;2023-07-09T10:44:25;36.60;1.00
16271;DHT22;8243;49.048;8.396;2023-07-09T10:47:02;35.90;1.00
16271;DHT22;8243;49.048;8.396;2023-07-09T10:49:36;36.20;1.00
16271;DHT22;8243;49.048;8.396;2023-07-09T10:55:20;36.20;1.00
16271;DHT22;8243;49.048;8.396;2023-07-09T10:58:03;36.40;1.00
16271;DHT22;8243;49.048;8.396;2023-07-09T11:00:38;36.60;1.00
16271;DHT22;8243;49.048;8.396;2023-07-09T11:03:15;37.30;1.00
16271;DHT22;8243;49.048;8.396;2023-07-09T11:05:43;37.50;1.00
16271;DHT22;8243;49.048;8.396;2023-07-09T11:08:18;37.10;1.00
16271;DHT22;8243;49.048;8.396;2023-07-09T11:11:01;36.80;1.00
16271;DHT22;8243;49.048;8.396;2023-07-09T11:13:44;36.80;1.00
16271;DHT22;8243;49.048;8.396;2023-07-09T11:16:19;36.10;1.00
16271;DHT22;8243;49.048;8.396;2023-07-09T11:18:57;35.60;1.00
16271;DHT22;8243;49.048;8.396;2023-07-09T11:21:25;35.50;1.00
16271;DHT22;8243;49.048;8.396;2023-07-09T11:23:54;35.60;1.00
16271;DHT22;8243;49.048;8.396;2023-07-09T11:26:27;36.00;1.00
16271;DHT22;8243;49.048;8.396;2023-07-09T11:29:16;36.00;1.00
16271;DHT22;8243;49.048;8.396;2023-07-09T11:31:45;36.00;1.00
16271;DHT22;8243;49.048;8.396;2023-07-09T11:34:16;36.20;1.00
16271;DHT22;8243;49.048;8.396;2023-07-09T11:36:58;36.40;1.00
16271;DHT22;8243;49.048;8.396;2023-07-09T11:39:41;36.40;1.00
16271;DHT22;8243;49.048;8.396;2023-07-09T11:45:02;36.00;1.00
16271;DHT22;8243;49.048;8.396;2023-07-09T11:47:49;35.90;1.00
16271;DHT22;8243;49.048;8.396;2023-07-09T11:50:26;36.10;1.00
16271;DHT22;8243;49.048;8.396;2023-07-09T11:52:56;36.00;1.00
16271;DHT22;8243;49.048;8.396;2023-07-09T11:55:44;36.30;1.00
16271;DHT22;8243;49.048;8.396;2023-07-09T11:58:16;36.40;1.00
16271;DHT22;8243;49.048;8.396;2023-07-09T12:00:49;36.60;1.00
16271;DHT22;8243;49.048;8.396;2023-07-09T12:03:25;36.50;1.00
16271;DHT22;8243;49.048;8.396;2023-07-09T12:06:00;36.30;1.00
16271;DHT22;8243;49.048;8.396;2023-07-09T12:08:35;36.20;1.00
16271;DHT22;8243;49.048;8.396;2023-07-09T12:11:03;36.40;1.00
16271;DHT22;8243;49.048;8.396;2023-07-09T12:13:39;36.40;1.00
16271;DHT22;8243;49.048;8.396;2023-07-09T12:16:28;36.50;1.00
16271;DHT22;8243;49.048;8.396;2023-07-09T12:18:54;36.80;1.00
16271;DHT22;8243;49.048;8.396;2023-07-09T12:21:22;36.70;1.00
16271;DHT22;8243;49.048;8.396;2023-07-09T12:23:49;36.90;1.00
16271;DHT22;8243;49.048;8.396;2023-07-09T12:26:17;36.80;1.00
16271;DHT22;8243;49.048;8.396;2023-07-09T12:28:52;36.50;1.00
16271;DHT22;8243;49.048;8.396;2023-07-09T12:31:25;36.50;1.00
16271;DHT22;8243;49.048;8.396;2023-07-09T12:33:56;36.90;1.00
16271;DHT22;8243;49.048;8.396;2023-07-09T12:36:24;37.20;1.00
16271;DHT22;8243;49.048;8.396;2023-07-09T12:38:53;37.70;1.00
16271;DHT22;8243;49.048;8.396;2023-07-09T12:41:37;38.30;1.00
16271;DHT22;8243;49.048;8.396;2023-07-09T12:44:04;38.20;1.00
16271;DHT22;8243;49.048;8.396;2023-07-09T12:46:30;38.00;1.00
16271;DHT22;8243;49.048;8.396;2023-07-09T12:48:56;37.80;1.00
16271;DHT22;8243;49.048;8.396;2023-07-09T12:51:24;38.00;1.00
16271;DHT22;8243;49.048;8.396;2023-07-09T12:56:37;38.20;1.00
16271;DHT22;8243;49.048;8.396;2023-07-09T12:59:21;38.60;1.00
16271;DHT22;8243;49.048;8.396;2023-07-09T13:01:55;38.60;1.00
16271;DHT22;8243;49.048;8.396;2023-07-09T13:04:31;38.50;1.00
16271;DHT22;8243;49.048;8.396;2023-07-09T13:06:57;38.00;1.00
16271;DHT22;8243;49.048;8.396;2023-07-09T13:09:26;38.40;1.00
16271;DHT22;8243;49.048;8.396;2023-07-09T13:11:52;38.70;1.00
16271;DHT22;8243;49.048;8.396;2023-07-09T13:14:23;38.80;1.00
16271;DHT22;8243;49.048;8.396;2023-07-09T13:16:50;38.00;1.00
16271;DHT22;8243;49.048;8.396;2023-07-09T13:19:17;38.50;1.00
16271;DHT22;8243;49.048;8.396;2023-07-09T13:21:44;38.30;1.00
16271;DHT22;8243;49.048;8.396;2023-07-09T13:24:24;38.10;1.00
16271;DHT22;8243;49.048;8.396;2023-07-09T13:26:51;38.60;1.00
16271;DHT22;8243;49.048;8.396;2023-07-09T13:29:18;38.90;1.00
16271;DHT22;8243;49.048;8.396;2023-07-09T13:31:45;39.00;1.00
16271;DHT22;8243;49.048;8.396;2023-07-09T13:34:25;39.20;1.00
16271;DHT22;8243;49.048;8.396;2023-07-09T13:36:52;38.30;1.00
16271;DHT22;8243;49.048;8.396;2023-07-09T13:39:19;38.50;1.00
16271;DHT22;8243;49.048;8.396;2023-07-09T13:41:47;38.80;1.00
16271;DHT22;8243;49.048;8.396;2023-07-09T13:44:22;38.80;1.00
16271;DHT22;8243;49.048;8.396;2023-07-09T13:46:48;39.20;1.00
16271;DHT22;8243;49.048;8.396;2023-07-09T13:49:20;39.20;1.00
16271;DHT22;8243;49.048;8.396;2023-07-09T13:51:51;39.00;1.00
16271;DHT22;8243;49.048;8.396;2023-07-09T13:54:22;38.90;1.00
16271;DHT22;8243;49.048;8.396;2023-07-09T13:56:52;38.70;1.00
16271;DHT22;8243;49.048;8.396;2023-07-09T13:59:25;39.10;1.00
16271;DHT22;8243;49.048;8.396;2023-07-09T14:01:55;38.90;1.00
16271;DHT22;8243;49.048;8.396;2023-07-09T14:04:22;38.70;1.00
16271;DHT22;8243;49.048;8.396;2023-07-09T14:06:48;38.70;1.00
16271;DHT22;8243;49.048;8.396;2023-07-09T14:09:15;38.90;1.00
16271;DHT22;8243;49.048;8.396;2023-07-09T14:11:47;39.20;1.00
16271;DHT22;8243;49.048;8.396;2023-07-09T14:16:47;39.30;1.00
16271;DHT22;8243;49.048;8.396;2023-07-09T14:19:16;39.70;1.00
16271;DHT22;8243;49.048;8.396;2023-07-09T14:21:42;40.20;1.00
16271;DHT22;8243;49.048;8.396;2023-07-09T14:26:47;40.50;1.00
16271;DHT22;8243;49.048;8.396;2023-07-09T14:29:13;40.60;1.00
16271;DHT22;8243;49.048;8.396;2023-07-09T14:31:41;40.30;1.00
16271;DHT22;8243;49.048;8.396;2023-07-09T14:34:27;40.00;1.00
16271;DHT22;8243;49.048;8.396;2023-07-09T14:36:56;39.90;1.00
16271;DHT22;8243;49.048;8.396;2023-07-09T14:39:23;38.90;1.00
16271;DHT22;8243;49.048;8.396;2023-07-09T14:41:48;39.00;1.00
16271;DHT22;8243;49.048;8.396;2023-07-09T14:44:27;39.20;1.00
16271;DHT22;8243;49.048;8.396;2023-07-09T14:46:55;39.60;1.00
16271;DHT22;8243;49.048;8.396;2023-07-09T14:49:21;39.40;1.00
16271;DHT22;8243;49.048;8.396;2023-07-09T14:51:49;39.30;1.00
16271;DHT22;8243;49.048;8.396;2023-07-09T14:54:27;39.60;1.00
16271;DHT22;8243;49.048;8.396;2023-07-09T14:56:54;39.50;1.00
16271;DHT22;8243;49.048;8.396;2023-07-09T14:59:21;39.10;1.00
16271;DHT22;8243;49.048;8.396;2023-07-09T15:01:48;38.80;1.00
16271;DHT22;8243;49.048;8.396;2023-07-09T15:06:55;38.70;1.00
16271;DHT22;8243;49.048;8.396;2023-07-09T15:09:26;38.80;1.00
16271;DHT22;8243;49.048;8.396;2023-07-09T15:11:57;38.50;1.00
16271;DHT22;8243;49.048;8.396;2023-07-09T15:14:26;38.30;1.00
16271;DHT22;8243;49.048;8.396;2023-07-09T15:16:52;38.30;1.00
16271;DHT22;8243;49.048;8.396;2023-07-09T15:19:23;38.20;1.00
16271;DHT22;8243;49.048;8.396;2023-07-09T15:21:49;38.00;1.00
16271;DHT22;8243;49.048;8.396;2023-07-09T15:24:31;38.00;1.00
16271;DHT22;8243;49.048;8.396;2023-07-09T15:26:58;38.10;1.00
16271;DHT22;8243;49.048;8.396;2023-07-09T15:29:25;38.00;1.00
16271;DHT22;8243;49.048;8.396;2023-07-09T15:31:52;38.00;1.00
16271;DHT22;8243;49.048;8.396;2023-07-09T15:34:20;38.00;1.00
16271;DHT22;8243;49.048;8.396;2023-07-09T15:36:50;38.00;1.00
16271;DHT22;8243;49.048;8.396;2023-07-09T15:39:17;37.90;1.00
16271;DHT22;8243;49.048;8.396;2023-07-09T15:41:44;38.00;1.00
16271;DHT22;8243;49.048;8.396;2023-07-09T15:44:15;37.90;1.00
16271;DHT22;8243;49.048;8.396;2023-07-09T15:46:54;37.80;1.00
16271;DHT22;8243;49.048;8.396;2023-07-09T15:49:21;37.80;1.00
16271;DHT22;8243;49.048;8.396;2023-07-09T15:51:47;37.70;1.00
16271;DHT22;8243;49.048;8.396;2023-07-09T15:54:19;37.80;1.00
16271;DHT22;8243;49.048;8.396;2023-07-09T15:56:46;37.60;1.00
16271;DHT22;8243;49.048;8.396;2023-07-09T15:59:34;37.70;1.00
16271;DHT22;8243;49.048;8.396;2023-07-09T16:02:02;37.50;1.00
16271;DHT22;8243;49.048;8.396;2023-07-09T16:04:34;37.50;1.00
16271;DHT22;8243;49.048;8.396;2023-07-09T16:06:59;37.40;1.00
16271;DHT22;8243;49.048;8.396;2023-07-09T16:09:27;37.50;1.00
16271;DHT22;8243;49.048;8.396;2023-07-09T16:11:54;37.50;1.00
16271;DHT22;8243;49.048;8.396;2023-07-09T16:14:26;37.50;1.00
16271;DHT22;8243;49.048;8.396;2023-07-09T16:16:53;37.10;1.00
16271;DHT22;8243;49.048;8.396;2023-07-09T16:19:21;36.90;1.00
16271;DHT22;8243;49.048;8.396;2023-07-09T16:21:50;36.70;1.00
16271;DHT22;8243;49.048;8.396;2023-07-09T16:24:25;36.60;1.00
16271;DHT22;8243;49.048;8.396;2023-07-09T16:26:51;36.50;1.00
16271;DHT22;8243;49.048;8.396;2023-07-09T16:29:26;36.20;1.00
16271;DHT22;8243;49.048;8.396;2023-07-09T16:31:53;36.10;1.00
16271;DHT22;8243;49.048;8.396;2023-07-09T16:34:21;36.00;1.00
16271;DHT22;8243;49.048;8.396;2023-07-09T16:36:48;36.10;1.00
16271;DHT22;8243;49.048;8.396;2023-07-09T16:39:40;36.10;1.00
16271;DHT22;8243;49.048;8.396;2023-07-09T16:42:11;36.10;1.00
16271;DHT22;8243;49.048;8.396;2023-07-09T16:44:38;36.20;1.00
16271;DHT22;8243;49.048;8.396;2023-07-09T16:47:15;36.10;1.00
16271;DHT22;8243;49.048;8.396;2023-07-09T16:49:41;36.10;1.00
16271;DHT22;8243;49.048;8.396;2023-07-09T16:52:17;36.10;1.00
16271;DHT22;8243;49.048;8.396;2023-07-09T16:54:43;36.00;1.00
16271;DHT22;8243;49.048;8.396;2023-07-09T16:57:16;36.10;1.00
16271;DHT22;8243;49.048;8.396;2023-07-09T16:59:43;36.10;1.00
16271;DHT22;8243;49.048;8.396;2023-07-09T17:04:47;36.10;1.00